createdAt,value
2022-11-10T15:53:41.046Z,92542.19
2022-11-10T16:01:25.406Z,92552.41
2022-11-10T16:03:51.636Z,92556.81
2022-11-10T16:06:17.955Z,92556.81
2022-11-10T16:11:22.446Z,92560.88
2022-11-10T16:24:47.950Z,92573.00
2022-11-10T16:27:14.508Z,92580.19
2022-11-10T16:37:57.135Z,92606.09
2022-11-10T16:40:23.306Z,92608.63
2022-11-10T16:42:49.609Z,92606.38
2022-11-10T16:45:15.820Z,92610.13
2022-11-10T16:47:42.124Z,92616.81
2022-11-10T16:50:08.528Z,92614.97
2022-11-10T16:52:34.793Z,92623.84
2022-11-10T16:55:01.277Z,92628.94
2022-11-10T16:57:27.507Z,92637.34
2022-11-10T16:59:53.860Z,92630.84
2022-11-10T17:02:20.273Z,92629.78
2022-11-10T17:04:46.465Z,92637.06
2022-11-10T17:07:12.866Z,92644.28
2022-11-10T17:09:39.196Z,92647.94
2022-11-10T17:12:05.535Z,92658.84
2022-11-10T17:14:31.777Z,92648.75
2022-11-10T17:16:58.052Z,92665.09
2022-11-10T17:19:24.373Z,92666.09
2022-11-10T17:21:50.595Z,92668.63
2022-11-10T17:24:19.990Z,92669.44
2022-11-10T17:26:46.315Z,92673.38
2022-11-10T17:29:12.544Z,92691.22
2022-11-10T17:31:38.815Z,92688.84
2022-11-10T17:34:05.163Z,92691.47
2022-11-10T17:36:31.564Z,92688.81
2022-11-10T17:38:58.646Z,92695.88
2022-11-10T17:41:25.266Z,92696.53
2022-11-10T17:43:54.945Z,92717.50
2022-11-10T17:49:02.955Z,92714.28
2022-11-10T18:18:27.858Z,92739.91
2022-11-10T18:20:57.808Z,92748.16
2022-11-10T18:23:36.626Z,92757.22
2022-11-10T18:26:03.552Z,92753.03
2022-11-10T18:28:32.803Z,92758.72
2022-11-10T18:30:59.354Z,92760.63
2022-11-10T18:33:25.822Z,92758.66
2022-11-10T18:35:52.157Z,92764.06
2022-11-10T18:38:18.383Z,92764.78
2022-11-10T18:40:44.610Z,92763.19
2022-11-10T18:43:10.884Z,92760.69
2022-11-10T18:45:37.114Z,92760.72
2022-11-10T18:48:03.423Z,92770.81
2022-11-10T18:50:29.618Z,92767.47
2022-11-10T18:52:55.818Z,92767.16
2022-11-10T18:55:22.028Z,92775.78
2022-11-10T18:57:49.633Z,92780.84
2022-11-10T19:00:15.862Z,92783.94
2022-11-10T19:02:42.179Z,92783.81
2022-11-10T19:05:08.419Z,92786.31
2022-11-10T19:07:34.714Z,92787.50
2022-11-10T19:10:00.918Z,92783.72
2022-11-10T19:12:27.268Z,92784.81
2022-11-10T19:14:53.784Z,92792.56
2022-11-10T19:17:20.114Z,92794.03
2022-11-10T19:19:46.444Z,92794.38
2022-11-10T19:22:12.887Z,92804.16
2022-11-10T19:25:00.718Z,92802.81
2022-11-10T19:27:25.374Z,92804.75
2022-11-10T19:29:51.608Z,92813.56
2022-11-10T19:32:22.145Z,92808.44
2022-11-10T19:34:50.822Z,92812.81
2022-11-10T19:37:16.983Z,92817.41
2022-11-10T19:39:43.189Z,92815.22
2022-11-10T19:42:09.484Z,92812.16
2022-11-10T19:44:35.686Z,92815.19
2022-11-10T19:47:01.880Z,92811.25
2022-11-10T19:49:28.064Z,92812.84
2022-11-10T19:51:54.249Z,92817.97
2022-11-10T19:54:20.433Z,92823.81
2022-11-10T19:56:46.635Z,92830.84
2022-11-10T19:59:12.835Z,92829.47
2022-11-10T20:01:39.071Z,92829.97
2022-11-10T20:04:05.237Z,92836.50
2022-11-10T20:06:31.438Z,92832.72
2022-11-10T20:08:57.605Z,92835.13
2022-11-10T20:11:23.805Z,92846.88
2022-11-10T20:13:54.485Z,92841.72
2022-11-10T20:16:21.263Z,92845.34
2022-11-10T20:18:47.433Z,92843.47
2022-11-10T20:21:13.609Z,92843.94
2022-11-10T20:23:39.792Z,92847.22
2022-11-10T20:26:05.969Z,92850.69
2022-11-10T20:28:32.158Z,92846.25
2022-11-10T20:30:58.355Z,92847.88
2022-11-10T20:33:24.858Z,92849.19
2022-11-10T20:35:51.213Z,92857.69
2022-11-10T20:38:17.401Z,92853.44
2022-11-10T20:40:45.027Z,92851.03
2022-11-10T20:43:11.495Z,92853.25
2022-11-10T20:45:37.681Z,92851.94
2022-11-10T20:48:03.838Z,92860.25
2022-11-10T20:50:30.026Z,92857.06
2022-11-10T20:52:56.204Z,92873.84
2022-11-10T20:55:51.597Z,92872.34
2022-11-10T20:58:08.582Z,92874.47
2022-11-10T21:00:34.758Z,92873.78
2022-11-10T21:03:00.888Z,92883.50
2022-11-10T21:05:27.075Z,92880.13
2022-11-10T21:07:53.289Z,92888.63
2022-11-10T21:10:19.422Z,92880.91
2022-11-10T21:12:45.606Z,92885.66
2022-11-10T21:15:11.759Z,92883.38
2022-11-10T21:17:42.976Z,92881.72
2022-11-10T21:20:10.155Z,92888.31
2022-11-10T21:22:36.328Z,92878.97
2022-11-10T21:25:02.538Z,92884.88
2022-11-10T21:27:28.715Z,92884.44
2022-11-10T21:29:54.907Z,92884.47
2022-11-10T21:32:21.119Z,92887.97
2022-11-10T21:34:47.254Z,92886.56
2022-11-10T21:37:13.453Z,92890.03
2022-11-10T21:39:39.653Z,92896.00
2022-11-10T21:42:05.906Z,92898.47
2022-11-10T21:44:32.122Z,92891.72
2022-11-10T21:46:58.285Z,92889.03
2022-11-10T21:49:24.452Z,92891.16
2022-11-10T21:51:50.713Z,92882.72
2022-11-10T21:54:16.890Z,92884.22
2022-11-10T21:56:43.090Z,92879.56
2022-11-10T21:59:09.278Z,92878.69
2022-11-10T22:01:35.483Z,92881.03
2022-11-10T22:04:01.750Z,92884.59
2022-11-10T22:06:27.871Z,92889.94
2022-11-10T22:08:54.028Z,92885.81
2022-11-10T22:11:20.190Z,92894.72
2022-11-10T22:13:46.352Z,92883.00
2022-11-10T22:16:12.474Z,92886.34
2022-11-10T22:18:38.671Z,92894.25
2022-11-10T22:21:04.863Z,92895.06
2022-11-10T22:23:31.018Z,92894.47
2022-11-10T22:25:57.206Z,92900.19
2022-11-10T22:28:23.397Z,92902.88
2022-11-10T22:30:49.565Z,92901.41
2022-11-10T22:33:15.755Z,92907.19
2022-11-10T22:35:41.920Z,92897.00
2022-11-10T22:38:08.055Z,92906.31
2022-11-10T22:40:34.182Z,92905.50
2022-11-10T22:43:00.298Z,92904.59
2022-11-10T22:45:26.486Z,92904.31
2022-11-10T22:47:52.607Z,92900.59
2022-11-10T22:50:18.754Z,92896.59
2022-11-10T22:52:44.916Z,92898.97
2022-11-10T22:55:11.063Z,92902.50
2022-11-10T22:57:37.211Z,92900.91
2022-11-10T23:00:03.363Z,92905.56
2022-11-10T23:02:29.543Z,92906.88
2022-11-10T23:04:55.745Z,92911.81
2022-11-10T23:07:21.928Z,92907.03
2022-11-10T23:09:48.126Z,92901.06
2022-11-10T23:12:14.265Z,92906.84
2022-11-10T23:14:40.461Z,92911.44
2022-11-10T23:17:06.635Z,92907.31
2022-11-10T23:19:32.750Z,92907.22
2022-11-10T23:21:58.925Z,92902.75
2022-11-10T23:24:25.133Z,92901.13
2022-11-10T23:26:51.292Z,92895.41
2022-11-10T23:29:17.419Z,92898.13
2022-11-10T23:31:43.535Z,92896.25
2022-11-10T23:34:09.701Z,92905.69
2022-11-10T23:36:35.808Z,92909.88
2022-11-10T23:39:01.911Z,92904.06
2022-11-10T23:41:28.103Z,92899.22
2022-11-10T23:43:54.235Z,92904.84
2022-11-10T23:46:20.367Z,92904.41
2022-11-10T23:48:46.549Z,92903.63
2022-11-10T23:51:12.689Z,92910.03
2022-11-10T23:53:38.860Z,92913.31
2022-11-10T23:56:04.977Z,92909.03
2022-11-10T23:58:31.145Z,92904.38
